sensor_id;sensor_type;location;lat;lon;timestamp;temperature;humidity
43627;DHT22;29217;52.586;13.442;2022-08-19T00:02:25;21.00;99.90
43627;DHT22;29217;52.586;13.442;2022-08-19T00:04:50;21.00;99.90
43627;DHT22;29217;52.586;13.442;2022-08-19T00:07:18;21.00;99.90
43627;DHT22;29217;52.586;13.442;2022-08-19T00:09:45;21.00;99.90
43627;DHT22;29217;52.586;13.442;2022-08-19T00:12:11;21.00;99.90
43627;DHT22;29217;52.586;13.442;2022-08-19T00:14:37;21.00;99.90
43627;DHT22;29217;52.586;13.442;2022-08-19T00:17:05;21.00;99.90
43627;DHT22;29217;52.586;13.442;2022-08-19T00:19:32;21.00;99.90
43627;DHT22;29217;52.586;13.442;2022-08-19T00:21:58;21.00;99.90
43627;DHT22;29217;52.586;13.442;2022-08-19T00:24:24;21.00;99.90
43627;DHT22;29217;52.586;13.442;2022-08-19T00:26:50;21.00;99.90
43627;DHT22;29217;52.586;13.442;2022-08-19T00:29:18;21.10;99.90
43627;DHT22;29217;52.586;13.442;2022-08-19T00:31:45;21.10;99.90
43627;DHT22;29217;52.586;13.442;2022-08-19T00:34:11;21.10;99.90
43627;DHT22;29217;52.586;13.442;2022-08-19T00:36:37;21.10;99.90
43627;DHT22;29217;52.586;13.442;2022-08-19T00:39:03;21.00;99.90
43627;DHT22;29217;52.586;13.442;2022-08-19T00:41:29;21.00;99.90
43627;DHT22;29217;52.586;13.442;2022-08-19T00:44:06;21.10;99.90
43627;DHT22;29217;52.586;13.442;2022-08-19T00:46:34;21.10;99.90
43627;DHT22;29217;52.586;13.442;2022-08-19T00:49:06;21.10;99.90
43627;DHT22;29217;52.586;13.442;2022-08-19T00:51:32;21.10;99.90
43627;DHT22;29217;52.586;13.442;2022-08-19T00:53:59;21.00;99.90
43627;DHT22;29217;52.586;13.442;2022-08-19T00:56:26;21.00;99.90
43627;DHT22;29217;52.586;13.442;2022-08-19T00:58:52;21.00;99.90
43627;DHT22;29217;52.586;13.442;2022-08-19T01:01:19;21.00;99.90
43627;DHT22;29217;52.586;13.442;2022-08-19T01:03:45;21.10;99.90
43627;DHT22;29217;52.586;13.442;2022-08-19T01:06:10;21.10;99.90
43627;DHT22;29217;52.586;13.442;2022-08-19T01:08:36;21.10;99.90
43627;DHT22;29217;52.586;13.442;2022-08-19T01:11:02;21.00;99.90
43627;DHT22;29217;52.586;13.442;2022-08-19T01:13:31;21.00;99.90
43627;DHT22;29217;52.586;13.442;2022-08-19T01:16:09;21.10;99.90
43627;DHT22;29217;52.586;13.442;2022-08-19T01:18:39;21.00;99.90
43627;DHT22;29217;52.586;13.442;2022-08-19T01:21:15;20.90;99.90
43627;DHT22;29217;52.586;13.442;2022-08-19T01:23:43;20.90;99.90
43627;DHT22;29217;52.586;13.442;2022-08-19T01:26:13;21.00;99.90
43627;DHT22;29217;52.586;13.442;2022-08-19T01:28:40;21.00;99.90
43627;DHT22;29217;52.586;13.442;2022-08-19T01:31:12;20.90;99.90
43627;DHT22;29217;52.586;13.442;2022-08-19T01:33:38;21.00;99.90
43627;DHT22;29217;52.586;13.442;2022-08-19T01:36:11;21.00;99.90
43627;DHT22;29217;52.586;13.442;2022-08-19T01:38:39;21.00;99.90
43627;DHT22;29217;52.586;13.442;2022-08-19T01:41:05;21.00;99.90
43627;DHT22;29217;52.586;13.442;2022-08-19T01:43:31;21.00;99.90
43627;DHT22;29217;52.586;13.442;2022-08-19T01:45:57;21.00;99.90
43627;DHT22;29217;52.586;13.442;2022-08-19T01:48:23;20.90;99.90
43627;DHT22;29217;52.586;13.442;2022-08-19T01:50:49;21.00;99.90
43627;DHT22;29217;52.586;13.442;2022-08-19T01:53:14;20.90;99.90
43627;DHT22;29217;52.586;13.442;2022-08-19T01:55:42;20.90;99.90
43627;DHT22;29217;52.586;13.442;2022-08-19T01:58:13;20.90;99.90
43627;DHT22;29217;52.586;13.442;2022-08-19T02:00:40;20.90;99.90
43627;DHT22;29217;52.586;13.442;2022-08-19T02:03:06;20.90;99.90
43627;DHT22;29217;52.586;13.442;2022-08-19T02:05:32;20.80;99.90
43627;DHT22;29217;52.586;13.442;2022-08-19T02:07:57;20.80;99.90
43627;DHT22;29217;52.586;13.442;2022-08-19T02:10:24;20.80;99.90
43627;DHT22;29217;52.586;13.442;2022-08-19T02:12:50;20.80;99.90
43627;DHT22;29217;52.586;13.442;2022-08-19T02:15:17;20.80;99.90
43627;DHT22;29217;52.586;13.442;2022-08-19T02:17:44;20.80;99.90
43627;DHT22;29217;52.586;13.442;2022-08-19T02:20:11;20.70;99.90
43627;DHT22;29217;52.586;13.442;2022-08-19T02:22:38;20.70;99.90
43627;DHT22;29217;52.586;13.442;2022-08-19T02:25:07;20.60;99.90
43627;DHT22;29217;52.586;13.442;2022-08-19T02:27:32;20.60;99.90
43627;DHT22;29217;52.586;13.442;2022-08-19T02:29:59;20.50;99.90
43627;DHT22;29217;52.586;13.442;2022-08-19T02:32:25;20.50;99.90
43627;DHT22;29217;52.586;13.442;2022-08-19T02:34:50;20.50;99.90
43627;DHT22;29217;52.586;13.442;2022-08-19T02:37:16;20.50;99.90
43627;DHT22;29217;52.586;13.442;2022-08-19T02:40:00;20.50;99.90
43627;DHT22;29217;52.586;13.442;2022-08-19T02:42:26;20.50;99.90
43627;DHT22;29217;52.586;13.442;2022-08-19T02:44:52;20.50;99.90
43627;DHT22;29217;52.586;13.442;2022-08-19T02:47:18;20.50;99.90
43627;DHT22;29217;52.586;13.442;2022-08-19T02:49:45;20.40;99.90
43627;DHT22;29217;52.586;13.442;2022-08-19T02:52:11;20.40;99.90
43627;DHT22;29217;52.586;13.442;2022-08-19T02:54:37;20.40;99.90
43627;DHT22;29217;52.586;13.442;2022-08-19T02:57:04;20.40;99.90
43627;DHT22;29217;52.586;13.442;2022-08-19T02:59:31;20.40;99.90
43627;DHT22;29217;52.586;13.442;2022-08-19T03:01:57;20.40;99.90
43627;DHT22;29217;52.586;13.442;2022-08-19T03:04:22;20.40;99.90
43627;DHT22;29217;52.586;13.442;2022-08-19T03:06:49;20.40;99.90
43627;DHT22;29217;52.586;13.442;2022-08-19T03:09:17;20.40;99.90
43627;DHT22;29217;52.586;13.442;2022-08-19T03:11:42;20.40;99.90
43627;DHT22;29217;52.586;13.442;2022-08-19T03:14:09;20.40;99.90
43627;DHT22;29217;52.586;13.442;2022-08-19T03:16:42;20.40;99.90
43627;DHT22;29217;52.586;13.442;2022-08-19T03:19:08;20.40;99.90
43627;DHT22;29217;52.586;13.442;2022-08-19T03:21:34;20.30;99.90
43627;DHT22;29217;52.586;13.442;2022-08-19T03:24:03;20.30;99.90
43627;DHT22;29217;52.586;13.442;2022-08-19T03:26:29;20.30;99.90
43627;DHT22;29217;52.586;13.442;2022-08-19T03:28:56;20.30;99.90
43627;DHT22;29217;52.586;13.442;2022-08-19T03:31:22;20.20;99.90
43627;DHT22;29217;52.586;13.442;2022-08-19T03:33:49;20.20;99.90
43627;DHT22;29217;52.586;13.442;2022-08-19T03:36:19;20.20;99.90
43627;DHT22;29217;52.586;13.442;2022-08-19T03:38:48;20.20;99.90
43627;DHT22;29217;52.586;13.442;2022-08-19T03:41:18;20.20;99.90
43627;DHT22;29217;52.586;13.442;2022-08-19T03:43:44;20.20;99.90
43627;DHT22;29217;52.586;13.442;2022-08-19T03:46:16;20.20;99.90
43627;DHT22;29217;52.586;13.442;2022-08-19T03:48:44;20.10;99.90
43627;DHT22;29217;52.586;13.442;2022-08-19T03:53:46;20.10;99.90
43627;DHT22;29217;52.586;13.442;2022-08-19T03:56:12;20.10;99.90
43627;DHT22;29217;52.586;13.442;2022-08-19T03:58:39;20.10;99.90
43627;DHT22;29217;52.586;13.442;2022-08-19T04:01:10;20.10;99.90
43627;DHT22;29217;52.586;13.442;2022-08-19T04:03:37;20.10;99.90
43627;DHT22;29217;52.586;13.442;2022-08-19T04:06:30;20.10;99.90
43627;DHT22;29217;52.586;13.442;2022-08-19T04:08:57;20.10;99.90
43627;DHT22;29217;52.586;13.442;2022-08-19T04:11:36;20.10;99.90
43627;DHT22;29217;52.586;13.442;2022-08-19T04:14:07;20.10;99.90
43627;DHT22;29217;52.586;13.442;2022-08-19T04:16:33;20.10;99.90
43627;DHT22;29217;52.586;13.442;2022-08-19T04:19:00;20.10;99.90
43627;DHT22;29217;52.586;13.442;2022-08-19T04:21:27;20.10;99.90
43627;DHT22;29217;52.586;13.442;2022-08-19T04:23:54;20.00;99.90
43627;DHT22;29217;52.586;13.442;2022-08-19T04:26:26;20.00;99.90
43627;DHT22;29217;52.586;13.442;2022-08-19T04:28:52;20.00;99.90
43627;DHT22;29217;52.586;13.442;2022-08-19T04:31:29;20.00;99.90
43627;DHT22;29217;52.586;13.442;2022-08-19T04:33:59;20.00;99.90
43627;DHT22;29217;52.586;13.442;2022-08-19T04:36:29;20.00;99.90
43627;DHT22;29217;52.586;13.442;2022-08-19T04:38:58;20.00;99.90
43627;DHT22;29217;52.586;13.442;2022-08-19T04:41:23;20.00;99.90
43627;DHT22;29217;52.586;13.442;2022-08-19T04:44:09;20.00;99.90
43627;DHT22;29217;52.586;13.442;2022-08-19T04:46:34;20.00;99.90
43627;DHT22;29217;52.586;13.442;2022-08-19T04:49:01;20.00;99.90
43627;DHT22;29217;52.586;13.442;2022-08-19T04:51:27;20.10;99.90
43627;DHT22;29217;52.586;13.442;2022-08-19T04:53:53;20.10;99.90
43627;DHT22;29217;52.586;13.442;2022-08-19T04:56:20;20.10;99.90
43627;DHT22;29217;52.586;13.442;2022-08-19T04:58:48;20.10;99.90
43627;DHT22;29217;52.586;13.442;2022-08-19T05:01:22;20.10;99.90
43627;DHT22;29217;52.586;13.442;2022-08-19T05:03:49;20.10;99.90
43627;DHT22;29217;52.586;13.442;2022-08-19T05:06:15;20.20;99.90
43627;DHT22;29217;52.586;13.442;2022-08-19T05:08:42;20.20;99.90
43627;DHT22;29217;52.586;13.442;2022-08-19T05:11:30;20.30;99.90
43627;DHT22;29217;52.586;13.442;2022-08-19T05:13:56;20.30;99.90
43627;DHT22;29217;52.586;13.442;2022-08-19T05:16:23;20.40;99.90
43627;DHT22;29217;52.586;13.442;2022-08-19T05:18:49;20.30;99.90
43627;DHT22;29217;52.586;13.442;2022-08-19T05:21:34;20.40;99.90
43627;DHT22;29217;52.586;13.442;2022-08-19T05:24:20;20.40;99.90
43627;DHT22;29217;52.586;13.442;2022-08-19T05:26:48;20.50;99.90
43627;DHT22;29217;52.586;13.442;2022-08-19T05:29:15;20.50;99.90
43627;DHT22;29217;52.586;13.442;2022-08-19T05:31:42;20.60;99.90
43627;DHT22;29217;52.586;13.442;2022-08-19T05:34:09;20.60;99.90
43627;DHT22;29217;52.586;13.442;2022-08-19T05:36:39;20.70;99.90
43627;DHT22;29217;52.586;13.442;2022-08-19T05:39:10;20.70;99.90
43627;DHT22;29217;52.586;13.442;2022-08-19T05:41:37;20.80;99.90
43627;DHT22;29217;52.586;13.442;2022-08-19T05:44:06;20.80;99.90
43627;DHT22;29217;52.586;13.442;2022-08-19T05:46:34;20.90;99.90
43627;DHT22;29217;52.586;13.442;2022-08-19T05:49:00;20.90;99.90
43627;DHT22;29217;52.586;13.442;2022-08-19T05:51:26;20.90;99.90
43627;DHT22;29217;52.586;13.442;2022-08-19T05:53:52;21.00;99.90
43627;DHT22;29217;52.586;13.442;2022-08-19T05:56:18;21.00;99.90
43627;DHT22;29217;52.586;13.442;2022-08-19T05:58:45;21.00;99.90
43627;DHT22;29217;52.586;13.442;2022-08-19T06:01:16;21.00;99.90
43627;DHT22;29217;52.586;13.442;2022-08-19T06:03:43;21.00;99.90
43627;DHT22;29217;52.586;13.442;2022-08-19T06:06:10;21.10;99.90
43627;DHT22;29217;52.586;13.442;2022-08-19T06:08:37;21.10;99.90
43627;DHT22;29217;52.586;13.442;2022-08-19T06:11:21;21.10;99.90
43627;DHT22;29217;52.586;13.442;2022-08-19T06:13:50;21.10;99.90
43627;DHT22;29217;52.586;13.442;2022-08-19T06:16:18;21.20;99.90
43627;DHT22;29217;52.586;13.442;2022-08-19T06:18:46;21.20;99.90
43627;DHT22;29217;52.586;13.442;2022-08-19T06:21:12;21.30;99.90
43627;DHT22;29217;52.586;13.442;2022-08-19T06:23:38;21.30;99.90
43627;DHT22;29217;52.586;13.442;2022-08-19T06:26:04;21.30;99.90
43627;DHT22;29217;52.586;13.442;2022-08-19T06:28:29;21.30;99.90
43627;DHT22;29217;52.586;13.442;2022-08-19T06:30:55;21.30;99.90
43627;DHT22;29217;52.586;13.442;2022-08-19T06:33:20;21.40;99.90
43627;DHT22;29217;52.586;13.442;2022-08-19T06:35:46;21.40;99.90
43627;DHT22;29217;52.586;13.442;2022-08-19T06:38:12;21.40;99.90
43627;DHT22;29217;52.586;13.442;2022-08-19T06:40:37;21.50;99.90
43627;DHT22;29217;52.586;13.442;2022-08-19T06:43:03;21.50;99.90
43627;DHT22;29217;52.586;13.442;2022-08-19T06:45:29;21.50;99.90
43627;DHT22;29217;52.586;13.442;2022-08-19T06:47:55;21.50;99.90
43627;DHT22;29217;52.586;13.442;2022-08-19T06:50:22;21.60;99.90
43627;DHT22;29217;52.586;13.442;2022-08-19T06:52:48;21.70;99.90
43627;DHT22;29217;52.586;13.442;2022-08-19T06:55:14;21.70;99.90
43627;DHT22;29217;52.586;13.442;2022-08-19T06:57:41;21.70;99.90
43627;DHT22;29217;52.586;13.442;2022-08-19T07:00:08;21.80;99.90
43627;DHT22;29217;52.586;13.442;2022-08-19T07:02:37;21.80;99.90
43627;DHT22;29217;52.586;13.442;2022-08-19T07:05:03;21.80;99.90
43627;DHT22;29217;52.586;13.442;2022-08-19T07:07:30;21.80;99.90
43627;DHT22;29217;52.586;13.442;2022-08-19T07:09:56;21.90;99.90
43627;DHT22;29217;52.586;13.442;2022-08-19T07:12:22;21.80;99.90
43627;DHT22;29217;52.586;13.442;2022-08-19T07:14:47;21.90;99.90
43627;DHT22;29217;52.586;13.442;2022-08-19T07:17:14;21.90;99.90
43627;DHT22;29217;52.586;13.442;2022-08-19T07:19:41;21.90;99.90
43627;DHT22;29217;52.586;13.442;2022-08-19T07:22:09;21.90;99.90
43627;DHT22;29217;52.586;13.442;2022-08-19T07:24:35;21.90;99.90
43627;DHT22;29217;52.586;13.442;2022-08-19T07:27:03;22.00;99.90
43627;DHT22;29217;52.586;13.442;2022-08-19T07:29:31;22.00;99.90
43627;DHT22;29217;52.586;13.442;2022-08-19T07:31:59;22.00;99.90
43627;DHT22;29217;52.586;13.442;2022-08-19T07:34:27;22.10;99.90
43627;DHT22;29217;52.586;13.442;2022-08-19T07:36:53;22.10;99.90
43627;DHT22;29217;52.586;13.442;2022-08-19T07:39:25;22.10;99.90
43627;DHT22;29217;52.586;13.442;2022-08-19T07:41:52;22.10;99.90
43627;DHT22;29217;52.586;13.442;2022-08-19T07:44:19;22.10;99.90
43627;DHT22;29217;52.586;13.442;2022-08-19T07:46:47;22.10;99.90
43627;DHT22;29217;52.586;13.442;2022-08-19T07:49:15;22.10;99.90
43627;DHT22;29217;52.586;13.442;2022-08-19T07:51:55;22.10;99.90
43627;DHT22;29217;52.586;13.442;2022-08-19T07:54:23;22.10;99.90
43627;DHT22;29217;52.586;13.442;2022-08-19T07:56:49;22.10;99.90
43627;DHT22;29217;52.586;13.442;2022-08-19T07:59:21;22.10;99.90
43627;DHT22;29217;52.586;13.442;2022-08-19T08:01:48;22.10;99.90
43627;DHT22;29217;52.586;13.442;2022-08-19T08:04:16;22.10;99.90
43627;DHT22;29217;52.586;13.442;2022-08-19T08:07:00;22.10;99.90
43627;DHT22;29217;52.586;13.442;2022-08-19T08:09:44;22.20;99.90
43627;DHT22;29217;52.586;13.442;2022-08-19T08:12:11;22.20;99.90
43627;DHT22;29217;52.586;13.442;2022-08-19T08:17:10;22.40;99.90
43627;DHT22;29217;52.586;13.442;2022-08-19T08:19:36;22.40;99.90
43627;DHT22;29217;52.586;13.442;2022-08-19T08:22:03;22.50;99.90
43627;DHT22;29217;52.586;13.442;2022-08-19T08:24:31;22.60;99.90
43627;DHT22;29217;52.586;13.442;2022-08-19T08:26:58;22.60;99.90
43627;DHT22;29217;52.586;13.442;2022-08-19T08:29:28;22.70;99.90
43627;DHT22;29217;52.586;13.442;2022-08-19T08:31:55;22.70;99.90
43627;DHT22;29217;52.586;13.442;2022-08-19T08:34:21;22.70;99.90
43627;DHT22;29217;52.586;13.442;2022-08-19T08:36:47;22.70;99.90
43627;DHT22;29217;52.586;13.442;2022-08-19T08:39:17;22.70;99.90
43627;DHT22;29217;52.586;13.442;2022-08-19T08:42:13;22.80;99.90
43627;DHT22;29217;52.586;13.442;2022-08-19T08:44:59;22.80;99.90
43627;DHT22;29217;52.586;13.442;2022-08-19T08:47:36;22.90;99.90
43627;DHT22;29217;52.586;13.442;2022-08-19T08:50:07;22.90;99.90
43627;DHT22;29217;52.586;13.442;2022-08-19T08:52:41;23.00;99.90
43627;DHT22;29217;52.586;13.442;2022-08-19T08:55:12;23.10;99.90
43627;DHT22;29217;52.586;13.442;2022-08-19T09:00:34;23.00;99.90
43627;DHT22;29217;52.586;13.442;2022-08-19T09:03:01;23.00;99.90
43627;DHT22;29217;52.586;13.442;2022-08-19T09:05:39;23.00;99.90
43627;DHT22;29217;52.586;13.442;2022-08-19T09:08:23;23.10;99.90
43627;DHT22;29217;52.586;13.442;2022-08-19T09:10:53;23.10;99.90
43627;DHT22;29217;52.586;13.442;2022-08-19T09:15:52;23.00;99.90
43627;DHT22;29217;52.586;13.442;2022-08-19T09:18:19;22.90;99.90
43627;DHT22;29217;52.586;13.442;2022-08-19T09:20:45;22.90;99.90
43627;DHT22;29217;52.586;13.442;2022-08-19T09:23:12;22.90;99.90
43627;DHT22;29217;52.586;13.442;2022-08-19T09:25:38;23.00;99.90
43627;DHT22;29217;52.586;13.442;2022-08-19T09:28:06;23.20;99.90
43627;DHT22;29217;52.586;13.442;2022-08-19T09:30:36;23.40;99.90
43627;DHT22;29217;52.586;13.442;2022-08-19T09:33:04;23.60;99.90
43627;DHT22;29217;52.586;13.442;2022-08-19T09:35:30;23.80;99.90
43627;DHT22;29217;52.586;13.442;2022-08-19T09:37:56;24.00;99.90
43627;DHT22;29217;52.586;13.442;2022-08-19T09:40:24;24.10;99.90
43627;DHT22;29217;52.586;13.442;2022-08-19T09:42:51;24.20;99.90
43627;DHT22;29217;52.586;13.442;2022-08-19T09:45:19;24.20;99.90
43627;DHT22;29217;52.586;13.442;2022-08-19T09:47:47;24.20;99.90
43627;DHT22;29217;52.586;13.442;2022-08-19T09:50:14;24.20;99.90
43627;DHT22;29217;52.586;13.442;2022-08-19T09:52:39;24.20;99.90
43627;DHT22;29217;52.586;13.442;2022-08-19T09:55:08;24.30;99.90
43627;DHT22;29217;52.586;13.442;2022-08-19T09:57:35;24.40;99.90
43627;DHT22;29217;52.586;13.442;2022-08-19T10:00:01;24.60;99.90
43627;DHT22;29217;52.586;13.442;2022-08-19T10:02:27;24.60;99.90
43627;DHT22;29217;52.586;13.442;2022-08-19T10:04:52;24.60;99.90
43627;DHT22;29217;52.586;13.442;2022-08-19T10:07:37;24.70;99.90
43627;DHT22;29217;52.586;13.442;2022-08-19T10:10:06;24.60;99.90
43627;DHT22;29217;52.586;13.442;2022-08-19T10:12:32;24.60;99.90
43627;DHT22;29217;52.586;13.442;2022-08-19T10:14:59;24.40;99.90
43627;DHT22;29217;52.586;13.442;2022-08-19T10:17:25;24.30;99.90
43627;DHT22;29217;52.586;13.442;2022-08-19T10:19:51;24.20;99.90
43627;DHT22;29217;52.586;13.442;2022-08-19T10:22:17;24.20;99.90
43627;DHT22;29217;52.586;13.442;2022-08-19T10:24:43;24.20;99.90
43627;DHT22;29217;52.586;13.442;2022-08-19T10:27:08;24.30;99.90
43627;DHT22;29217;52.586;13.442;2022-08-19T10:29:35;24.20;99.90
43627;DHT22;29217;52.586;13.442;2022-08-19T10:32:03;24.20;99.90
43627;DHT22;29217;52.586;13.442;2022-08-19T10:34:30;24.10;99.90
43627;DHT22;29217;52.586;13.442;2022-08-19T10:36:57;24.10;99.90
43627;DHT22;29217;52.586;13.442;2022-08-19T10:39:23;24.10;99.90
43627;DHT22;29217;52.586;13.442;2022-08-19T10:41:48;24.20;99.90
43627;DHT22;29217;52.586;13.442;2022-08-19T10:44:14;24.20;99.90
43627;DHT22;29217;52.586;13.442;2022-08-19T10:46:43;24.30;99.90
43627;DHT22;29217;52.586;13.442;2022-08-19T10:49:12;24.40;99.90
43627;DHT22;29217;52.586;13.442;2022-08-19T10:51:39;24.40;99.90
43627;DHT22;29217;52.586;13.442;2022-08-19T10:54:24;24.40;99.90
43627;DHT22;29217;52.586;13.442;2022-08-19T10:57:09;24.50;99.90
43627;DHT22;29217;52.586;13.442;2022-08-19T10:59:35;24.50;99.90
43627;DHT22;29217;52.586;13.442;2022-08-19T11:02:02;24.40;99.90
43627;DHT22;29217;52.586;13.442;2022-08-19T11:04:28;24.40;99.90
43627;DHT22;29217;52.586;13.442;2022-08-19T11:06:54;24.40;99.90
43627;DHT22;29217;52.586;13.442;2022-08-19T11:09:23;24.40;99.90
43627;DHT22;29217;52.586;13.442;2022-08-19T11:11:55;24.30;99.90
43627;DHT22;29217;52.586;13.442;2022-08-19T11:14:23;24.10;99.90
43627;DHT22;29217;52.586;13.442;2022-08-19T11:16:50;24.10;99.90
43627;DHT22;29217;52.586;13.442;2022-08-19T11:19:17;24.10;99.90
43627;DHT22;29217;52.586;13.442;2022-08-19T11:21:46;24.00;99.90
43627;DHT22;29217;52.586;13.442;2022-08-19T11:24:15;23.90;99.90
43627;DHT22;29217;52.586;13.442;2022-08-19T11:26:42;23.90;99.90
43627;DHT22;29217;52.586;13.442;2022-08-19T11:29:09;23.80;99.90
43627;DHT22;29217;52.586;13.442;2022-08-19T11:31:37;23.80;99.90
43627;DHT22;29217;52.586;13.442;2022-08-19T11:34:06;23.80;99.90
43627;DHT22;29217;52.586;13.442;2022-08-19T11:36:32;23.70;99.90
43627;DHT22;29217;52.586;13.442;2022-08-19T11:38:58;23.60;99.90
43627;DHT22;29217;52.586;13.442;2022-08-19T11:41:25;23.60;99.90
43627;DHT22;29217;52.586;13.442;2022-08-19T11:43:51;23.60;99.90
43627;DHT22;29217;52.586;13.442;2022-08-19T11:46:22;23.60;99.90
43627;DHT22;29217;52.586;13.442;2022-08-19T11:48:48;23.70;99.90
43627;DHT22;29217;52.586;13.442;2022-08-19T11:51:17;23.80;99.90
43627;DHT22;29217;52.586;13.442;2022-08-19T11:53:44;23.80;99.90
43627;DHT22;29217;52.586;13.442;2022-08-19T11:56:11;23.80;99.90
43627;DHT22;29217;52.586;13.442;2022-08-19T11:58:39;23.80;99.90
43627;DHT22;29217;52.586;13.442;2022-08-19T12:01:12;23.90;99.90
43627;DHT22;29217;52.586;13.442;2022-08-19T12:03:40;23.90;99.90
43627;DHT22;29217;52.586;13.442;2022-08-19T12:06:11;23.90;99.90
43627;DHT22;29217;52.586;13.442;2022-08-19T12:08:39;23.90;99.90
43627;DHT22;29217;52.586;13.442;2022-08-19T12:11:05;24.00;99.90
43627;DHT22;29217;52.586;13.442;2022-08-19T12:13:33;24.10;99.90
43627;DHT22;29217;52.586;13.442;2022-08-19T12:15:59;24.40;99.90
43627;DHT22;29217;52.586;13.442;2022-08-19T12:18:26;24.70;99.90
43627;DHT22;29217;52.586;13.442;2022-08-19T12:20:53;24.80;99.90
43627;DHT22;29217;52.586;13.442;2022-08-19T12:23:20;24.80;99.90
43627;DHT22;29217;52.586;13.442;2022-08-19T12:25:47;24.80;99.90
43627;DHT22;29217;52.586;13.442;2022-08-19T12:28:20;24.70;99.90
43627;DHT22;29217;52.586;13.442;2022-08-19T12:30:48;24.60;99.90
43627;DHT22;29217;52.586;13.442;2022-08-19T12:33:14;24.60;99.90
43627;DHT22;29217;52.586;13.442;2022-08-19T12:35:42;24.70;99.90
43627;DHT22;29217;52.586;13.442;2022-08-19T12:38:08;24.70;99.90
43627;DHT22;29217;52.586;13.442;2022-08-19T12:40:34;24.60;99.90
43627;DHT22;29217;52.586;13.442;2022-08-19T12:42:59;24.70;99.90
43627;DHT22;29217;52.586;13.442;2022-08-19T12:45:25;24.60;99.90
43627;DHT22;29217;52.586;13.442;2022-08-19T12:47:50;24.70;99.90
43627;DHT22;29217;52.586;13.442;2022-08-19T12:50:18;24.90;99.90
43627;DHT22;29217;52.586;13.442;2022-08-19T12:52:44;25.10;99.90
43627;DHT22;29217;52.586;13.442;2022-08-19T12:55:10;25.40;99.90
43627;DHT22;29217;52.586;13.442;2022-08-19T12:57:37;25.80;99.90
43627;DHT22;29217;52.586;13.442;2022-08-19T13:02:42;25.90;99.90
43627;DHT22;29217;52.586;13.442;2022-08-19T13:05:14;25.70;99.90
43627;DHT22;29217;52.586;13.442;2022-08-19T13:07:41;25.60;99.90
43627;DHT22;29217;52.586;13.442;2022-08-19T13:10:13;25.40;99.90
43627;DHT22;29217;52.586;13.442;2022-08-19T13:12:41;25.40;99.90
43627;DHT22;29217;52.586;13.442;2022-08-19T13:15:07;25.30;99.90
43627;DHT22;29217;52.586;13.442;2022-08-19T13:17:34;25.50;99.90
43627;DHT22;29217;52.586;13.442;2022-08-19T13:20:01;25.70;99.90
43627;DHT22;29217;52.586;13.442;2022-08-19T13:22:26;25.90;99.90
43627;DHT22;29217;52.586;13.442;2022-08-19T13:24:52;25.90;99.90
43627;DHT22;29217;52.586;13.442;2022-08-19T13:27:18;25.80;99.90
43627;DHT22;29217;52.586;13.442;2022-08-19T13:29:43;25.70;99.90
43627;DHT22;29217;52.586;13.442;2022-08-19T13:32:29;25.60;99.90
43627;DHT22;29217;52.586;13.442;2022-08-19T13:35:13;25.50;99.90
43627;DHT22;29217;52.586;13.442;2022-08-19T13:37:40;25.70;99.90
43627;DHT22;29217;52.586;13.442;2022-08-19T13:40:12;25.80;99.90
43627;DHT22;29217;52.586;13.442;2022-08-19T13:42:40;25.70;99.90
43627;DHT22;29217;52.586;13.442;2022-08-19T13:45:06;25.70;99.90
43627;DHT22;29217;52.586;13.442;2022-08-19T13:47:33;25.70;99.90
43627;DHT22;29217;52.586;13.442;2022-08-19T13:50:13;25.60;99.90
43627;DHT22;29217;52.586;13.442;2022-08-19T13:52:40;25.50;99.90
43627;DHT22;29217;52.586;13.442;2022-08-19T13:55:06;25.40;99.90
43627;DHT22;29217;52.586;13.442;2022-08-19T13:57:33;25.40;99.90
43627;DHT22;29217;52.586;13.442;2022-08-19T13:59:59;25.40;99.90
43627;DHT22;29217;52.586;13.442;2022-08-19T14:02:25;25.30;99.90
43627;DHT22;29217;52.586;13.442;2022-08-19T14:04:51;25.40;99.90
43627;DHT22;29217;52.586;13.442;2022-08-19T14:07:17;25.50;99.90
43627;DHT22;29217;52.586;13.442;2022-08-19T14:09:42;25.60;99.90
43627;DHT22;29217;52.586;13.442;2022-08-19T14:12:08;25.70;99.90
43627;DHT22;29217;52.586;13.442;2022-08-19T14:14:40;25.80;99.90
43627;DHT22;29217;52.586;13.442;2022-08-19T14:17:06;25.80;99.90
43627;DHT22;29217;52.586;13.442;2022-08-19T14:19:32;25.70;99.90
43627;DHT22;29217;52.586;13.442;2022-08-19T14:21:58;25.50;99.90
43627;DHT22;29217;52.586;13.442;2022-08-19T14:24:24;25.40;99.90
43627;DHT22;29217;52.586;13.442;2022-08-19T14:26:49;25.30;99.90
43627;DHT22;29217;52.586;13.442;2022-08-19T14:29:15;25.20;99.90
43627;DHT22;29217;52.586;13.442;2022-08-19T14:31:41;25.00;99.90
43627;DHT22;29217;52.586;13.442;2022-08-19T14:34:08;25.00;99.90
43627;DHT22;29217;52.586;13.442;2022-08-19T14:36:35;25.00;99.90
43627;DHT22;29217;52.586;13.442;2022-08-19T14:39:01;24.90;99.90
43627;DHT22;29217;52.586;13.442;2022-08-19T14:41:27;24.80;99.90
43627;DHT22;29217;52.586;13.442;2022-08-19T14:43:54;24.80;99.90
43627;DHT22;29217;52.586;13.442;2022-08-19T14:46:23;24.70;99.90
43627;DHT22;29217;52.586;13.442;2022-08-19T14:48:50;24.60;99.90
43627;DHT22;29217;52.586;13.442;2022-08-19T14:51:17;24.50;99.90
43627;DHT22;29217;52.586;13.442;2022-08-19T14:53:43;24.50;99.90
43627;DHT22;29217;52.586;13.442;2022-08-19T14:56:10;24.50;99.90
43627;DHT22;29217;52.586;13.442;2022-08-19T14:58:36;24.50;99.90
43627;DHT22;29217;52.586;13.442;2022-08-19T15:01:02;24.40;99.90
43627;DHT22;29217;52.586;13.442;2022-08-19T15:03:29;24.40;99.90
43627;DHT22;29217;52.586;13.442;2022-08-19T15:05:55;24.30;99.90
43627;DHT22;29217;52.586;13.442;2022-08-19T15:08:22;24.30;99.90
43627;DHT22;29217;52.586;13.442;2022-08-19T15:10:50;24.30;99.90
43627;DHT22;29217;52.586;13.442;2022-08-19T15:13:16;24.30;99.90
43627;DHT22;29217;52.586;13.442;2022-08-19T15:15:41;24.20;99.90
43627;DHT22;29217;52.586;13.442;2022-08-19T15:18:07;24.20;99.90
43627;DHT22;29217;52.586;13.442;2022-08-19T15:20:33;24.20;99.90
43627;DHT22;29217;52.586;13.442;2022-08-19T15:22:59;24.10;99.90
43627;DHT22;29217;52.586;13.442;2022-08-19T15:25:25;24.10;99.90
43627;DHT22;29217;52.586;13.442;2022-08-19T15:27:52;24.10;99.90
43627;DHT22;29217;52.586;13.442;2022-08-19T15:30:23;24.10;99.90
43627;DHT22;29217;52.586;13.442;2022-08-19T15:32:50;24.00;99.90
43627;DHT22;29217;52.586;13.442;2022-08-19T15:35:18;24.00;99.90